Main page
METAR-TAF:

METAR-TAF

Airports :

Doha International Airport

Doha, Qatar

latitude: 25-15-40N, longitude: 051-33-54E, elevation: 11 m

Current weather observation

The report was made 25 minutes ago, at 00:00 UTC
Calm wind
Temperature 28°C
Humidity 45%
Pressure 1005 hPa
Visibility 10 km or more
no clouds below 1500 m and no cumulonimbus

METAR: OTBD 240000Z 00000KT CAVOK 28/15 Q1005 NOSIG

Time: 03:25 (00:25 UTC)

Forecast

The report was made 1 hour and 14 minutes ago, at 23:11 UTC
Forecast valid from 24 at 00 UTC to 25 at 06 UTC
Wind 4 kt from the North/Northeast
Visibility 10 km or more
no clouds below 1500 m and no cumulonimbus
Becoming
from 24 at 03 UTC to 24 at 05 UTC
Wind 4 kt from the North/Northwest
Becoming
from 24 at 08 UTC to 24 at 10 UTC
Wind 10 kt from the East

TAF: OTBD 232311Z 2400/2506 02004KT CAVOK BECMG 2403/2405 34004KT BECMG 2408/2410 08010KT

Weather observations and forecasts of more than 4000 airports (METAR and TAF reports).

The available stations are represented by yellow and red dots on the map.

Hover mouse over dot to see the name of the station.

Then click to see weather observations and forecasts.

To change the map : click on the green buttons with a black cross to zoom in, on the green button with a dash to zoom out, or on the green arrows for adjacent maps.


METAR-TAF: